createdAt,value
2022-09-26T00:00:47.810Z,0
2022-09-26T00:01:48.360Z,0
2022-09-26T00:02:47.916Z,0
2022-09-26T00:03:47.474Z,0
2022-09-26T00:04:48.523Z,0
2022-09-26T00:05:47.765Z,0
2022-09-26T00:06:47.796Z,0
2022-09-26T00:07:47.547Z,0
2022-09-26T00:08:47.830Z,0
2022-09-26T00:09:47.569Z,0
2022-09-26T00:10:47.861Z,0
2022-09-26T00:11:48.139Z,0
2022-09-26T00:12:47.911Z,0
2022-09-26T00:13:47.678Z,0
2022-09-26T00:14:47.936Z,0
2022-09-26T00:15:48.199Z,0
2022-09-26T00:16:48.026Z,0
2022-09-26T00:17:47.976Z,0
2022-09-26T00:18:47.737Z,0
2022-09-26T00:19:47.752Z,0
2022-09-26T00:20:48.339Z,0
2022-09-26T00:21:48.305Z,0
2022-09-26T00:22:48.062Z,0
2022-09-26T00:23:48.136Z,0
2022-09-26T00:24:48.097Z,0
2022-09-26T00:25:48.378Z,0
2022-09-26T00:26:47.906Z,0
2022-09-26T00:27:48.143Z,0
2022-09-26T00:28:48.170Z,0
2022-09-26T00:29:48.225Z,0
2022-09-26T00:30:48.003Z,0
2022-09-26T00:31:48.233Z,0
2022-09-26T00:32:48.267Z,0
2022-09-26T00:33:48.562Z,0
2022-09-26T00:34:48.569Z,0
2022-09-26T00:35:48.297Z,0
2022-09-26T00:36:48.375Z,0
2022-09-26T00:37:48.067Z,0
2022-09-26T00:38:48.353Z,0
2022-09-26T00:39:48.370Z,0
2022-09-26T00:40:48.612Z,0
2022-09-26T00:41:48.406Z,0
2022-09-26T00:42:48.421Z,0
2022-09-26T00:43:48.474Z,0
2022-09-26T00:44:48.307Z,0
2022-09-26T00:45:49.414Z,0
2022-09-26T00:46:48.513Z,0
2022-09-26T00:47:48.518Z,0
2022-09-26T00:48:48.613Z,0
2022-09-26T00:49:48.292Z,0
2022-09-26T00:50:48.603Z,0
2022-09-26T00:51:48.589Z,0
2022-09-26T00:52:48.921Z,0
2022-09-26T00:53:48.893Z,0
2022-09-26T00:54:48.910Z,0
2022-09-26T00:55:48.661Z,0
2022-09-26T00:56:48.677Z,0
2022-09-26T00:57:48.695Z,0
2022-09-26T00:58:48.966Z,0
2022-09-26T00:59:48.999Z,0
2022-09-26T01:00:49.596Z,0
2022-09-26T01:01:49.802Z,0
2022-09-26T01:02:49.191Z,0
2022-09-26T01:03:48.798Z,0
2022-09-26T01:04:49.108Z,0
2022-09-26T01:05:48.583Z,0
2022-09-26T01:06:48.866Z,0
2022-09-26T01:07:49.140Z,0
2022-09-26T01:08:49.284Z,0
2022-09-26T01:09:49.172Z,0
2022-09-26T01:10:49.179Z,0
2022-09-26T01:11:49.208Z,0
2022-09-26T01:12:49.228Z,0
2022-09-26T01:13:48.981Z,0
2022-09-26T01:14:48.738Z,0
2022-09-26T01:15:49.025Z,0
2022-09-26T01:16:49.516Z,0
2022-09-26T01:17:49.338Z,0
2022-09-26T01:18:48.833Z,0
2022-09-26T01:19:49.087Z,0
2022-09-26T01:20:49.130Z,0
2022-09-26T01:21:49.169Z,0
2022-09-26T01:22:49.142Z,0
2022-09-26T01:23:49.181Z,0
2022-09-26T01:24:49.568Z,0
2022-09-26T01:25:48.959Z,0
2022-09-26T01:26:49.483Z,0
2022-09-26T01:27:49.504Z,0
2022-09-26T01:28:49.257Z,0
2022-09-26T01:29:49.284Z,0
2022-09-26T01:30:49.590Z,0
2022-09-26T01:31:49.590Z,0
2022-09-26T01:32:49.345Z,0
2022-09-26T01:33:49.636Z,0
2022-09-26T01:34:49.378Z,0
2022-09-26T01:35:49.128Z,0
2022-09-26T01:36:49.685Z,0
2022-09-26T01:37:49.412Z,0
2022-09-26T01:38:48.934Z,0
2022-09-26T01:39:49.459Z,0
2022-09-26T01:40:50.140Z,0
2022-09-26T01:41:49.236Z,0
2022-09-26T01:42:49.517Z,0
2022-09-26T01:43:49.536Z,0
2022-09-26T01:44:49.811Z,0
2022-09-26T01:45:49.906Z,0
2022-09-26T01:46:49.592Z,0
2022-09-26T01:47:49.600Z,0
2022-09-26T01:48:49.873Z,0
2022-09-26T01:49:49.665Z,0
2022-09-26T01:50:49.660Z,0
2022-09-26T01:51:49.415Z,0
2022-09-26T01:52:49.710Z,0
2022-09-26T01:53:49.713Z,0
2022-09-26T01:54:49.735Z,0
2022-09-26T01:55:50.007Z,0
2022-09-26T01:56:49.838Z,0
2022-09-26T01:57:49.520Z,0
2022-09-26T01:58:49.801Z,0
2022-09-26T01:59:50.078Z,0
2022-09-26T02:00:50.419Z,0
2022-09-26T02:01:50.540Z,0
2022-09-26T02:02:50.618Z,0
2022-09-26T02:03:50.130Z,0
2022-09-26T02:04:49.652Z,0
2022-09-26T02:05:50.279Z,0
2022-09-26T02:06:50.196Z,0
2022-09-26T02:07:49.978Z,0
2022-09-26T02:08:50.299Z,0
2022-09-26T02:09:49.995Z,0
2022-09-26T02:10:50.287Z,0
2022-09-26T02:11:50.022Z,0
2022-09-26T02:12:50.356Z,0
2022-09-26T02:13:50.068Z,0
2022-09-26T02:14:50.078Z,0
2022-09-26T02:15:50.148Z,0
2022-09-26T02:16:50.594Z,0
2022-09-26T02:17:50.050Z,0
2022-09-26T02:18:50.159Z,0
2022-09-26T02:19:49.922Z,0
2022-09-26T02:20:50.451Z,0
2022-09-26T02:21:50.231Z,0
2022-09-26T02:22:50.486Z,0
2022-09-26T02:23:50.494Z,0
2022-09-26T02:24:50.546Z,0
2022-09-26T02:25:50.295Z,0
2022-09-26T02:26:50.550Z,0
2022-09-26T02:27:50.345Z,0
2022-09-26T02:28:50.641Z,0
2022-09-26T02:29:50.367Z,0
2022-09-26T02:30:50.360Z,0
2022-09-26T02:31:50.814Z,0
2022-09-26T02:32:50.405Z,0
2022-09-26T02:33:50.672Z,0
2022-09-26T02:34:50.704Z,0
2022-09-26T02:35:50.460Z,0
2022-09-26T02:36:50.474Z,0
2022-09-26T02:37:50.525Z,0
2022-09-26T02:38:50.758Z,0
2022-09-26T02:39:50.554Z,0
2022-09-26T02:40:51.219Z,0
2022-09-26T02:41:50.582Z,0
2022-09-26T02:42:50.075Z,0
2022-09-26T02:43:50.868Z,0
2022-09-26T02:44:50.932Z,0
2022-09-26T02:45:50.966Z,0
2022-09-26T02:46:50.923Z,0
2022-09-26T02:47:50.682Z,0
2022-09-26T02:48:50.438Z,0
2022-09-26T02:49:50.704Z,0
2022-09-26T02:50:50.738Z,0
2022-09-26T02:51:50.493Z,0
2022-09-26T02:52:50.507Z,0
2022-09-26T02:53:51.055Z,0
2022-09-26T02:54:51.061Z,0
2022-09-26T02:55:50.836Z,0
2022-09-26T02:56:50.859Z,0
2022-09-26T02:57:51.104Z,0
2022-09-26T02:58:51.124Z,0
2022-09-26T02:59:51.150Z,0
2022-09-26T03:00:51.513Z,0
2022-09-26T03:01:50.772Z,0
2022-09-26T03:02:50.971Z,0
2022-09-26T03:03:51.295Z,0
2022-09-26T03:04:51.018Z,0
2022-09-26T03:05:51.037Z,0
2022-09-26T03:06:51.048Z,0
2022-09-26T03:07:51.297Z,0
2022-09-26T03:08:51.315Z,0
2022-09-26T03:09:51.449Z,0
2022-09-26T03:10:51.143Z,0
2022-09-26T03:11:51.131Z,0
2022-09-26T03:12:51.414Z,0
2022-09-26T03:13:50.917Z,0
2022-09-26T03:14:53.225Z,0
2022-09-26T03:15:51.431Z,0
2022-09-26T03:16:51.931Z,0
2022-09-26T03:17:50.964Z,0
2022-09-26T03:18:51.515Z,0
2022-09-26T03:19:51.256Z,0
2022-09-26T03:20:51.282Z,0
2022-09-26T03:21:51.310Z,0
2022-09-26T03:22:51.587Z,0
2022-09-26T03:23:51.584Z,0
2022-09-26T03:24:51.661Z,0
2022-09-26T03:25:51.398Z,0
2022-09-26T03:26:51.378Z,0
2022-09-26T03:27:51.390Z,0
2022-09-26T03:28:51.463Z,0
2022-09-26T03:29:51.687Z,0
2022-09-26T03:30:51.714Z,0
2022-09-26T03:31:51.845Z,0
2022-09-26T03:32:51.812Z,0
2022-09-26T03:33:51.768Z,0
2022-09-26T03:34:51.520Z,0
2022-09-26T03:35:51.296Z,0
2022-09-26T03:36:51.842Z,0
2022-09-26T03:37:51.829Z,0
2022-09-26T03:38:51.606Z,0
2022-09-26T03:39:51.864Z,0
2022-09-26T03:40:52.212Z,0
2022-09-26T03:41:51.666Z,0
2022-09-26T03:42:51.421Z,0
2022-09-26T03:43:51.175Z,0
2022-09-26T03:44:51.985Z,0
2022-09-26T03:45:52.326Z,0
2022-09-26T03:46:52.021Z,0
2022-09-26T03:47:52.005Z,0
2022-09-26T03:48:52.085Z,0
2022-09-26T03:49:51.787Z,0
2022-09-26T03:50:51.817Z,0
2022-09-26T03:51:52.087Z,0
2022-09-26T03:52:51.586Z,0
2022-09-26T03:53:51.887Z,0
2022-09-26T03:54:51.888Z,0
2022-09-26T03:55:51.641Z,0
2022-09-26T03:56:51.668Z,0
2022-09-26T03:57:52.212Z,0
2022-09-26T03:58:51.937Z,0
2022-09-26T03:59:51.979Z,0
2022-09-26T04:00:52.359Z,0
2022-09-26T04:01:52.362Z,0
2022-09-26T04:02:51.773Z,0
2022-09-26T04:03:57.523Z,0
2022-09-26T04:04:52.315Z,0
2022-09-26T04:05:52.081Z,0
2022-09-26T04:06:52.094Z,0
2022-09-26T04:07:52.107Z,0
2022-09-26T04:08:52.388Z,0
2022-09-26T04:09:52.164Z,0
2022-09-26T04:10:52.621Z,0
2022-09-26T04:11:52.523Z,0
2022-09-26T04:12:51.943Z,0
2022-09-26T04:14:00.937Z,0
2022-09-26T04:14:51.981Z,0
2022-09-26T04:15:52.259Z,0
2022-09-26T04:16:52.873Z,0
2022-09-26T04:17:52.288Z,0
2022-09-26T04:18:51.787Z,0
2022-09-26T04:19:52.659Z,0
2022-09-26T04:20:52.603Z,0
2022-09-26T04:21:52.132Z,0
2022-09-26T04:22:52.389Z,0
2022-09-26T04:23:52.661Z,0
2022-09-26T04:24:52.665Z,0
2022-09-26T04:25:52.702Z,0
2022-09-26T04:26:52.711Z,0
2022-09-26T04:27:52.727Z,0
2022-09-26T04:28:52.374Z,0
2022-09-26T04:29:52.545Z,0
2022-09-26T04:30:52.806Z,0
2022-09-26T04:31:53.035Z,0
2022-09-26T04:32:52.848Z,0
2022-09-26T04:33:52.587Z,0
2022-09-26T04:34:52.604Z,0
2022-09-26T04:35:52.920Z,0
2022-09-26T04:36:52.895Z,0
2022-09-26T04:37:52.646Z,0
2022-09-26T04:38:52.683Z,0
2022-09-26T04:39:52.949Z,0
2022-09-26T04:40:52.906Z,0
2022-09-26T04:41:52.730Z,0
2022-09-26T04:42:52.744Z,0
2022-09-26T04:43:52.789Z,0
2022-09-26T04:44:53.038Z,0
2022-09-26T04:45:53.456Z,0
2022-09-26T04:46:52.814Z,0
2022-09-26T04:47:52.575Z,0
2022-09-26T04:48:52.879Z,0
2022-09-26T04:49:52.867Z,0
2022-09-26T04:50:52.899Z,0
2022-09-26T04:51:53.225Z,0
2022-09-26T04:52:53.185Z,0
2022-09-26T04:53:53.207Z,0
2022-09-26T04:54:53.202Z,0
2022-09-26T04:55:52.987Z,4
2022-09-26T04:56:53.240Z,4
2022-09-26T04:57:53.007Z,0
2022-09-26T04:58:52.794Z,0
2022-09-26T04:59:52.785Z,4
2022-09-26T05:00:53.545Z,4
2022-09-26T05:01:53.457Z,4
2022-09-26T05:02:53.111Z,4
2022-09-26T05:03:53.387Z,8
2022-09-26T05:04:52.920Z,8
2022-09-26T05:05:53.150Z,8
2022-09-26T05:06:53.170Z,8
2022-09-26T05:07:53.503Z,12
2022-09-26T05:08:53.207Z,12
2022-09-26T05:09:53.231Z,12
2022-09-26T05:10:53.057Z,16
2022-09-26T05:11:53.259Z,20
2022-09-26T05:12:52.768Z,24
2022-09-26T05:13:59.417Z,24
2022-09-26T05:14:52.792Z,28
2022-09-26T05:15:53.505Z,32
2022-09-26T05:16:54.072Z,36
2022-09-26T05:17:53.654Z,44
2022-09-26T05:18:53.641Z,48
2022-09-26T05:19:53.669Z,48
2022-09-26T05:20:53.712Z,48
2022-09-26T05:21:53.722Z,56
2022-09-26T05:22:53.721Z,60
2022-09-26T05:23:53.793Z,64
2022-09-26T05:24:53.488Z,72
2022-09-26T05:25:53.772Z,76
2022-09-26T05:26:53.874Z,84
2022-09-26T05:27:53.561Z,92
2022-09-26T05:28:53.570Z,100
2022-09-26T05:29:53.858Z,108
2022-09-26T05:30:53.605Z,112
2022-09-26T05:31:54.138Z,120
2022-09-26T05:32:53.391Z,128
2022-09-26T05:33:53.686Z,140
2022-09-26T05:34:53.409Z,144
2022-09-26T05:35:53.942Z,152
2022-09-26T05:36:53.755Z,160
2022-09-26T05:37:53.706Z,172
2022-09-26T05:38:53.493Z,176
2022-09-26T05:39:53.817Z,184
2022-09-26T05:40:54.499Z,196
2022-09-26T05:41:54.059Z,204
2022-09-26T05:42:53.818Z,216
2022-09-26T05:43:53.836Z,224
2022-09-26T05:44:53.606Z,236
2022-09-26T05:45:53.611Z,256
2022-09-26T05:46:54.436Z,272
2022-09-26T05:47:54.256Z,284
2022-09-26T05:48:54.219Z,292
2022-09-26T05:49:53.758Z,308
2022-09-26T05:50:53.715Z,320
2022-09-26T05:51:53.758Z,308
2022-09-26T05:52:54.272Z,296
2022-09-26T05:53:54.029Z,296
2022-09-26T05:54:54.038Z,284
2022-09-26T05:55:54.368Z,280
2022-09-26T05:56:53.810Z,284
2022-09-26T05:57:54.095Z,308
2022-09-26T05:58:54.398Z,320
2022-09-26T05:59:53.867Z,340
2022-09-26T06:00:54.784Z,324
2022-09-26T06:01:54.472Z,316
2022-09-26T06:02:54.201Z,356
2022-09-26T06:03:55.232Z,368
2022-09-26T06:04:54.026Z,372
2022-09-26T06:05:54.348Z,376
2022-09-26T06:06:54.517Z,388
2022-09-26T06:07:54.530Z,400
2022-09-26T06:08:54.578Z,400
2022-09-26T06:09:54.310Z,404
2022-09-26T06:10:54.956Z,416
2022-09-26T06:11:54.677Z,432
2022-09-26T06:12:58.014Z,448
2022-09-26T06:13:54.125Z,472
2022-09-26T06:14:54.149Z,472
2022-09-26T06:15:54.617Z,484
2022-09-26T06:16:55.194Z,488
2022-09-26T06:17:54.464Z,480
2022-09-26T06:18:54.476Z,488
2022-09-26T06:19:54.746Z,500
2022-09-26T06:20:54.767Z,516
2022-09-26T06:21:54.884Z,488
2022-09-26T06:22:54.307Z,512
2022-09-26T06:23:54.851Z,492
2022-09-26T06:24:54.861Z,464
2022-09-26T06:25:54.613Z,484
2022-09-26T06:26:54.607Z,512
2022-09-26T06:28:00.473Z,528
2022-09-26T06:28:54.396Z,536
2022-09-26T06:29:54.950Z,560
2022-09-26T06:30:54.432Z,560
2022-09-26T06:31:55.280Z,560
2022-09-26T06:32:54.728Z,588
2022-09-26T06:33:54.769Z,672
2022-09-26T06:34:54.523Z,772
2022-09-26T06:35:55.048Z,820
2022-09-26T06:36:54.802Z,804
2022-09-26T06:37:54.350Z,820
2022-09-26T06:38:55.146Z,812
2022-09-26T06:40:00.889Z,824
2022-09-26T06:40:55.288Z,836
2022-09-26T06:41:55.319Z,864
2022-09-26T06:42:54.650Z,896
2022-09-26T06:43:54.980Z,920
2022-09-26T06:44:54.961Z,956
2022-09-26T06:45:55.223Z,988
2022-09-26T06:46:55.398Z,1008
2022-09-26T06:47:55.006Z,1060
2022-09-26T06:48:55.289Z,1056
2022-09-26T06:49:55.296Z,1080
2022-09-26T06:50:55.315Z,1096
2022-09-26T06:51:54.913Z,1116
2022-09-26T06:52:54.864Z,1120
2022-09-26T06:53:55.231Z,1128
2022-09-26T06:54:54.884Z,1156
2022-09-26T06:55:55.165Z,1184
2022-09-26T06:56:55.187Z,1156
2022-09-26T06:57:55.468Z,1192
2022-09-26T06:58:55.210Z,1192
2022-09-26T06:59:55.534Z,1208
2022-09-26T07:00:55.915Z,1232
2022-09-26T07:01:56.226Z,1268
2022-09-26T07:02:54.767Z,1160
2022-09-26T07:03:56.598Z,1060
2022-09-26T07:04:56.374Z,976
2022-09-26T07:05:55.334Z,968
2022-09-26T07:06:58.294Z,968
2022-09-26T07:07:55.632Z,956
2022-09-26T07:09:17.000Z,924
2022-09-26T07:09:55.943Z,932
2022-09-26T07:10:54.925Z,916
2022-09-26T07:12:21.322Z,836
2022-09-26T07:12:55.496Z,828
2022-09-26T07:13:55.487Z,828
2022-09-26T07:15:00.625Z,848
2022-09-26T07:15:55.796Z,880
2022-09-26T07:16:55.568Z,912
2022-09-26T07:17:55.599Z,928
2022-09-26T07:18:55.586Z,1032
2022-09-26T07:19:55.336Z,1136
2022-09-26T07:21:01.612Z,1088
2022-09-26T07:21:55.624Z,992
2022-09-26T07:22:55.920Z,992
2022-09-26T07:23:55.693Z,1004
2022-09-26T07:24:55.768Z,1080
2022-09-26T07:25:55.711Z,1048
2022-09-26T07:26:55.984Z,1060
2022-09-26T07:27:55.490Z,952
2022-09-26T07:29:01.258Z,896
2022-09-26T07:29:55.785Z,904
2022-09-26T07:30:55.853Z,876
2022-09-26T07:31:56.467Z,932
2022-09-26T07:32:56.096Z,740
2022-09-26T07:33:55.860Z,728
2022-09-26T07:34:56.135Z,760
2022-09-26T07:35:55.658Z,772
2022-09-26T07:36:56.177Z,784
2022-09-26T07:37:56.190Z,824
2022-09-26T07:38:55.775Z,912
2022-09-26T07:40:06.121Z,952
2022-09-26T07:40:56.563Z,1056
2022-09-26T07:41:56.268Z,1180
2022-09-26T07:45:36.462Z,1392
2022-09-26T07:46:24.487Z,1380
2022-09-26T07:47:23.877Z,1364
2022-09-26T07:48:23.634Z,1416
2022-09-26T07:49:23.907Z,1512
2022-09-26T07:50:23.711Z,1684
2022-09-26T07:51:23.942Z,1752
2022-09-26T07:52:23.965Z,1732
2022-09-26T07:53:24.255Z,1676
2022-09-26T07:54:24.002Z,1668
2022-09-26T07:55:24.316Z,1776
2022-09-26T07:56:24.038Z,1940
2022-09-26T07:57:24.094Z,2044
2022-09-26T07:58:24.369Z,2080
2022-09-26T07:59:24.367Z,1920
2022-09-26T08:00:24.691Z,2044
2022-09-26T08:01:24.503Z,1948
2022-09-26T08:02:25.214Z,1888
2022-09-26T08:03:24.588Z,1948
2022-09-26T08:04:24.438Z,1852
2022-09-26T08:05:24.236Z,1808
2022-09-26T08:06:24.225Z,1776
2022-09-26T08:07:24.238Z,1768
2022-09-26T08:08:24.271Z,1860
2022-09-26T08:09:24.345Z,1916
2022-09-26T08:10:24.377Z,1880
2022-09-26T08:11:24.825Z,1904
2022-09-26T08:12:24.385Z,2004
2022-09-26T08:13:24.615Z,1976
2022-09-26T08:14:24.386Z,1916
2022-09-26T08:15:24.676Z,1852
2022-09-26T08:16:25.071Z,1808
2022-09-26T08:17:24.725Z,1744
2022-09-26T08:18:24.576Z,1716
2022-09-26T08:19:24.612Z,1712
2022-09-26T08:20:27.389Z,1684
2022-09-26T08:21:24.821Z,1648
2022-09-26T08:22:24.623Z,1576
2022-09-26T08:23:24.552Z,1540
2022-09-26T08:24:24.820Z,1528
2022-09-26T08:25:24.585Z,1536
2022-09-26T08:26:24.624Z,1548
2022-09-26T08:27:24.645Z,1556
2022-09-26T08:28:24.910Z,1584
2022-09-26T08:29:24.674Z,1572
2022-09-26T08:30:25.050Z,1576
2022-09-26T08:31:24.872Z,1608
2022-09-26T08:32:24.981Z,1644
2022-09-26T08:33:25.044Z,1680
2022-09-26T08:34:31.134Z,1716
2022-09-26T08:35:24.526Z,1740
2022-09-26T08:36:25.057Z,1764
2022-09-26T08:37:25.083Z,1788
2022-09-26T08:38:24.835Z,1836
2022-09-26T08:39:24.840Z,1916
2022-09-26T08:40:25.613Z,2004
2022-09-26T08:41:24.898Z,2076
2022-09-26T08:42:24.659Z,2104
2022-09-26T08:43:24.961Z,2124
2022-09-26T08:44:24.991Z,2128
2022-09-26T08:45:24.965Z,2120
2022-09-26T08:46:25.528Z,2120
2022-09-26T08:47:25.266Z,2124
2022-09-26T08:48:25.038Z,2152
2022-09-26T08:49:25.068Z,2172
2022-09-26T08:50:25.390Z,2180
2022-09-26T08:51:31.772Z,2204
2022-09-26T08:52:25.346Z,2216
2022-09-26T08:53:25.382Z,2240
2022-09-26T08:54:25.407Z,2272
2022-09-26T08:55:25.168Z,2308
2022-09-26T08:56:25.170Z,2336
2022-09-26T08:57:24.940Z,2376
2022-09-26T08:58:31.727Z,2448
2022-09-26T08:59:25.490Z,2520
2022-09-26T09:00:25.266Z,2460
2022-09-26T09:01:25.616Z,2308
2022-09-26T09:02:26.404Z,2360
2022-09-26T09:03:25.681Z,2324
2022-09-26T09:04:25.329Z,2344
2022-09-26T09:05:25.644Z,2420
2022-09-26T09:06:25.783Z,2496
2022-09-26T09:07:25.392Z,2524
2022-09-26T09:08:25.699Z,2552
2022-09-26T09:09:25.702Z,2572
2022-09-26T09:10:25.519Z,2588
2022-09-26T09:11:25.743Z,2608
2022-09-26T09:12:35.975Z,2424
2022-09-26T09:13:25.507Z,2284
2022-09-26T09:14:25.302Z,2140
2022-09-26T09:15:32.690Z,1936
2022-09-26T09:16:25.727Z,1824
2022-09-26T09:17:25.362Z,1656
2022-09-26T09:18:25.605Z,1576
2022-09-26T09:19:25.618Z,1576
2022-09-26T09:20:25.712Z,1596
2022-09-26T09:21:25.955Z,1440
2022-09-26T09:22:26.008Z,1368
2022-09-26T09:23:25.696Z,1472
2022-09-26T09:24:25.740Z,1724
2022-09-26T09:25:25.744Z,1956
2022-09-26T09:27:59.319Z,2288
2022-09-26T09:28:15.988Z,2336
2022-09-26T09:29:23.687Z,2448
2022-09-26T09:30:24.032Z,2456
2022-09-26T09:31:15.863Z,2444
2022-09-26T09:32:15.594Z,2420
2022-09-26T09:33:15.351Z,2396
2022-09-26T09:34:16.273Z,2356
2022-09-26T09:35:15.938Z,2220
2022-09-26T09:36:15.950Z,2140
2022-09-26T09:37:15.972Z,2140
2022-09-26T09:38:16.037Z,2048
2022-09-26T09:39:15.468Z,1972
2022-09-26T09:40:15.939Z,1920
2022-09-26T09:41:16.023Z,1920
2022-09-26T09:42:15.806Z,1952
2022-09-26T09:43:15.540Z,1956
2022-09-26T09:44:16.238Z,1980
2022-09-26T09:45:15.608Z,2016
2022-09-26T09:46:16.160Z,2092
2022-09-26T09:47:15.915Z,2192
2022-09-26T09:48:15.893Z,2356
2022-09-26T09:49:15.916Z,2492
2022-09-26T09:50:16.256Z,2524
2022-09-26T09:51:15.725Z,2504
2022-09-26T09:52:16.239Z,2472
2022-09-26T09:53:16.029Z,2604
2022-09-26T09:54:16.753Z,2740
2022-09-26T09:55:15.789Z,2720
2022-09-26T09:56:16.050Z,2716
2022-09-26T09:57:15.837Z,2724
2022-09-26T09:58:16.355Z,2720
2022-09-26T09:59:16.374Z,2696
2022-09-26T10:00:16.183Z,2688
2022-09-26T10:01:16.159Z,2700
2022-09-26T10:02:15.947Z,2740
2022-09-26T10:03:16.641Z,2788
2022-09-26T10:04:16.423Z,2820
2022-09-26T10:05:16.233Z,2816
2022-09-26T10:06:51.831Z,2744
2022-09-26T10:07:16.265Z,2716
2022-09-26T10:08:16.305Z,2616
2022-09-26T10:09:46.648Z,2420
2022-09-26T10:10:16.322Z,2360
2022-09-26T10:11:16.620Z,2256
2022-09-26T10:12:16.390Z,2168
2022-09-26T10:13:16.380Z,2116
2022-09-26T10:14:16.785Z,2104
2022-09-26T10:15:16.431Z,2120
2022-09-26T10:16:16.656Z,2172
2022-09-26T10:17:16.487Z,2244
2022-09-26T10:18:33.732Z,2316
2022-09-26T10:19:16.506Z,2348
2022-09-26T10:20:16.815Z,2408
2022-09-26T10:21:16.373Z,2472
2022-09-26T10:22:16.561Z,2564
2022-09-26T10:23:16.613Z,2668
2022-09-26T10:24:17.304Z,2756
2022-09-26T10:25:16.999Z,2804
2022-09-26T10:26:16.639Z,2792
2022-09-26T10:27:16.672Z,2760
2022-09-26T10:28:16.938Z,2788
2022-09-26T10:29:16.959Z,2776
2022-09-26T10:30:17.071Z,2820
2022-09-26T10:31:17.043Z,2816
2022-09-26T10:32:17.008Z,2748
2022-09-26T10:33:16.786Z,2616
2022-09-26T10:34:16.948Z,2596
2022-09-26T10:35:21.934Z,2596
2022-09-26T10:36:16.325Z,2580
2022-09-26T10:37:17.130Z,2148
2022-09-26T10:38:16.624Z,2340
2022-09-26T10:39:17.153Z,2796
2022-09-26T10:40:17.794Z,2980
2022-09-26T10:41:17.391Z,2892
2022-09-26T10:42:16.975Z,2856
2022-09-26T10:43:16.982Z,2980
2022-09-26T10:44:17.170Z,3292
2022-09-26T10:45:17.283Z,2832
2022-09-26T10:46:17.175Z,2948
2022-09-26T10:47:16.812Z,2984
2022-09-26T10:48:17.081Z,2564
2022-09-26T10:49:16.841Z,2028
2022-09-26T10:50:16.897Z,2328
2022-09-26T10:51:17.153Z,2216
2022-09-26T10:52:23.779Z,2164
2022-09-26T10:53:17.169Z,2136
2022-09-26T10:54:17.349Z,2156
2022-09-26T10:55:17.489Z,2236
2022-09-26T10:56:17.270Z,2272
2022-09-26T10:57:17.886Z,2300
2022-09-26T10:58:20.913Z,2408
2022-09-26T10:59:17.556Z,2592
2022-09-26T11:00:17.769Z,2724
2022-09-26T11:01:17.449Z,2780
2022-09-26T11:02:17.713Z,2848
2022-09-26T11:03:17.655Z,2900
2022-09-26T11:04:17.750Z,2968
2022-09-26T11:05:17.417Z,2996
2022-09-26T11:06:20.542Z,2904
2022-09-26T11:07:17.713Z,2804
2022-09-26T11:08:16.962Z,2756
2022-09-26T11:09:17.485Z,2740
2022-09-26T11:10:17.531Z,2744
2022-09-26T11:11:17.788Z,2624
2022-09-26T11:12:17.815Z,2428
2022-09-26T11:13:17.942Z,2252
2022-09-26T11:14:17.773Z,2272
2022-09-26T11:15:17.925Z,2324
2022-09-26T11:16:18.288Z,2308
2022-09-26T11:17:17.681Z,2224
2022-09-26T11:18:17.936Z,2092
2022-09-26T11:19:18.234Z,2060
2022-09-26T11:20:17.511Z,1792
2022-09-26T11:21:34.904Z,1704
2022-09-26T11:22:17.749Z,1700
2022-09-26T11:23:17.493Z,1688
2022-09-26T11:24:18.339Z,1660
2022-09-26T11:25:17.788Z,1708
2022-09-26T11:26:18.075Z,1736
2022-09-26T11:27:17.582Z,1860
2022-09-26T11:28:17.851Z,1944
2022-09-26T11:29:18.381Z,1984
2022-09-26T11:30:17.683Z,2128
2022-09-26T11:31:18.301Z,2272
2022-09-26T11:32:18.186Z,2356
2022-09-26T11:33:18.206Z,2468
2022-09-26T11:34:18.213Z,2384
2022-09-26T11:35:18.245Z,2216
2022-09-26T11:36:18.312Z,2116
2022-09-26T11:37:17.545Z,1916
2022-09-26T11:38:17.823Z,1716
2022-09-26T11:39:18.538Z,1624
2022-09-26T11:40:18.079Z,1540
2022-09-26T11:41:18.102Z,1484
2022-09-26T11:42:18.166Z,1580
2022-09-26T11:43:18.179Z,1576
2022-09-26T11:44:18.412Z,1520
2022-09-26T11:45:18.513Z,1480
2022-09-26T11:46:18.435Z,1536
2022-09-26T11:47:18.478Z,1560
2022-09-26T11:48:17.980Z,1552
2022-09-26T11:49:18.008Z,1560
2022-09-26T11:50:18.093Z,1564
2022-09-26T11:51:18.313Z,1536
2022-09-26T11:52:18.580Z,1540
2022-09-26T11:53:18.369Z,1584
2022-09-26T11:54:18.805Z,1552
2022-09-26T11:55:18.121Z,1432
2022-09-26T11:56:18.510Z,1468
2022-09-26T11:57:18.626Z,1564
2022-09-26T11:58:18.696Z,1560
2022-09-26T11:59:18.471Z,1608
2022-09-26T12:00:18.236Z,1696
2022-09-26T12:01:18.888Z,1712
2022-09-26T12:02:18.997Z,1760
2022-09-26T12:03:19.272Z,1824
2022-09-26T12:04:19.790Z,1912
2022-09-26T12:05:18.611Z,2036
2022-09-26T12:06:18.597Z,2128
2022-09-26T12:07:18.620Z,2256
2022-09-26T12:08:18.653Z,2268
2022-09-26T12:09:18.678Z,2296
2022-09-26T12:10:18.954Z,2376
2022-09-26T12:11:18.692Z,2512
2022-09-26T12:12:18.715Z,2552
2022-09-26T12:13:18.740Z,2476
2022-09-26T12:14:19.207Z,2464
2022-09-26T12:15:18.526Z,2428
2022-09-26T12:16:19.457Z,2292
2022-09-26T12:17:19.153Z,2092
2022-09-26T12:18:18.830Z,1944
2022-09-26T12:19:23.680Z,1956
2022-09-26T12:20:19.129Z,2088
2022-09-26T12:21:18.896Z,2104
2022-09-26T12:22:18.646Z,1952
2022-09-26T12:23:19.186Z,1660
2022-09-26T12:24:19.267Z,1508
2022-09-26T12:25:24.656Z,1436
2022-09-26T12:26:18.982Z,1308
2022-09-26T12:27:19.277Z,1272
2022-09-26T12:28:18.777Z,1348
2022-09-26T12:29:19.057Z,1376
2022-09-26T12:30:19.318Z,1392
2022-09-26T12:31:24.675Z,1400
2022-09-26T12:32:19.379Z,1412
2022-09-26T12:33:19.489Z,1520
2022-09-26T12:34:19.347Z,1660
2022-09-26T12:35:19.170Z,1652
2022-09-26T12:36:19.448Z,1596
2022-09-26T12:37:19.215Z,1500
2022-09-26T12:38:18.978Z,1380
2022-09-26T12:39:19.484Z,1292
2022-09-26T12:40:19.732Z,1252
2022-09-26T12:41:19.584Z,1368
2022-09-26T12:42:19.301Z,1392
2022-09-26T12:43:19.581Z,1432
2022-09-26T12:44:19.603Z,1436
2022-09-26T12:45:19.663Z,1468
2022-09-26T12:46:19.932Z,1356
2022-09-26T12:47:19.407Z,1320
2022-09-26T12:48:18.893Z,1264
2022-09-26T12:49:19.979Z,1364
2022-09-26T12:50:19.453Z,1416
2022-09-26T12:51:19.468Z,1284
2022-09-26T12:52:21.580Z,1400
2022-09-26T12:53:19.270Z,1396
2022-09-26T12:54:19.800Z,1380
2022-09-26T12:55:19.814Z,1348
2022-09-26T12:56:19.314Z,1364
2022-09-26T12:57:19.759Z,1276
2022-09-26T12:58:19.364Z,1200
2022-09-26T12:59:20.308Z,1196
2022-09-26T13:00:19.810Z,1224
2022-09-26T13:01:19.745Z,1168
2022-09-26T13:02:20.100Z,1120
2022-09-26T13:03:20.001Z,1116
2022-09-26T13:04:19.568Z,1164
2022-09-26T13:05:20.303Z,1184
2022-09-26T13:06:19.642Z,1124
2022-09-26T13:07:27.817Z,1072
2022-09-26T13:08:19.605Z,1052
2022-09-26T13:09:19.909Z,1008
2022-09-26T13:10:20.110Z,1012
2022-09-26T13:11:19.868Z,1036
2022-09-26T13:12:19.893Z,1060
2022-09-26T13:13:20.178Z,1064
2022-09-26T13:14:19.668Z,1112
2022-09-26T13:15:19.941Z,1128
2022-09-26T13:16:20.094Z,1104
2022-09-26T13:17:19.983Z,1132
2022-09-26T13:18:25.941Z,1092
2022-09-26T13:19:20.448Z,1084
2022-09-26T13:20:20.043Z,1072
2022-09-26T13:21:20.415Z,1028
2022-09-26T13:22:19.845Z,1036
2022-09-26T13:23:20.092Z,1060
2022-09-26T13:24:20.375Z,1060
2022-09-26T13:25:20.215Z,1164
2022-09-26T13:26:20.415Z,1236
2022-09-26T13:27:20.433Z,1372
2022-09-26T13:28:20.195Z,1480
2022-09-26T13:29:31.814Z,1524
2022-09-26T13:30:20.512Z,1436
2022-09-26T13:31:20.293Z,1348
2022-09-26T13:32:20.523Z,1540
2022-09-26T13:33:20.303Z,1460
2022-09-26T13:34:20.578Z,1400
2022-09-26T13:35:20.147Z,1328
2022-09-26T13:36:20.363Z,1296
2022-09-26T13:37:20.745Z,1328
2022-09-26T13:38:20.409Z,1312
2022-09-26T13:39:20.453Z,1340
2022-09-26T13:40:20.878Z,1356
2022-09-26T13:41:20.691Z,1172
2022-09-26T13:42:20.466Z,1380
2022-09-26T13:43:26.817Z,1264
2022-09-26T13:44:20.502Z,1372
2022-09-26T13:45:20.293Z,1280
2022-09-26T13:46:20.639Z,1352
2022-09-26T13:47:20.581Z,1288
2022-09-26T13:48:20.831Z,1488
2022-09-26T13:49:20.597Z,1496
2022-09-26T13:50:20.890Z,1524
2022-09-26T13:51:20.899Z,1512
2022-09-26T13:52:20.898Z,1520
2022-09-26T13:53:21.010Z,1524
2022-09-26T13:54:20.530Z,1524
2022-09-26T13:55:20.955Z,1572
2022-09-26T13:56:20.984Z,1608
2022-09-26T13:57:21.319Z,1612
2022-09-26T13:58:21.021Z,1600